Time;durP1;ratioP1;P1;durP2;ratioP2;P2;SDS_P1;SDS_P2;PMS_P1;PMS_P2;Temp;Humidity;BMP_temperature;BMP_pressure;BME280_temperature;BME280_humidity;BME280_pressure;Samples;Min_cycle;Max_cycle;Signal;HPM_P1;HPM_P2
2023/11/11 00:01:42;;;;;;;2.47;0.80;;;7.10;1.00;;;;;;7393485;19;20032;-72
2023/11/11 00:04:10;;;;;;;3.08;1.00;;;7.10;1.00;;;;;;7393875;19;20018;-72
2023/11/11 00:06:40;;;;;;;1.50;0.80;;;7.10;1.00;;;;;;7395834;19;20014;-72
2023/11/11 00:09:13;;;;;;;3.30;1.13;;;7.20;1.00;;;;;;7395750;19;20096;-72
2023/11/11 00:11:44;;;;;;;1.70;0.80;;;7.10;1.00;;;;;;7403057;19;20010;-72
2023/11/11 00:14:14;;;;;;;2.58;0.80;;;7.10;1.00;;;;;;7400671;19;20019;-72
2023/11/11 00:16:47;;;;;;;2.15;0.88;;;7.20;1.00;;;;;;7400983;19;20018;-74
2023/11/11 00:19:17;;;;;;;1.42;0.60;;;7.20;1.00;;;;;;7403343;19;20381;-72
2023/11/11 00:21:49;;;;;;;2.00;0.60;;;7.20;1.00;;;;;;7401978;19;20014;-72
2023/11/11 00:24:24;;;;;;;1.55;0.75;;;7.20;1.00;;;;;;7397129;19;20398;-72
2023/11/11 00:26:55;;;;;;;1.40;0.73;;;7.20;1.00;;;;;;7401874;19;20010;-72
2023/11/11 00:29:25;;;;;;;0.80;0.47;;;7.20;1.00;;;;;;7401674;19;20389;-72
2023/11/11 00:31:55;;;;;;;1.10;0.70;;;7.20;1.00;;;;;;7402582;19;20368;-72
2023/11/11 00:34:25;;;;;;;2.67;0.65;;;7.20;1.00;;;;;;7398770;19;20043;-72
2023/11/11 00:36:56;;;;;;;4.03;1.05;;;7.20;1.00;;;;;;7401943;19;20059;-72
2023/11/11 00:39:33;;;;;;;1.42;0.63;;;7.10;1.00;;;;;;7402289;19;20018;-71
2023/11/11 00:42:03;;;;;;;3.08;0.70;;;7.20;1.00;;;;;;7401325;19;20108;-72
2023/11/11 00:44:35;;;;;;;2.03;0.80;;;7.20;1.00;;;;;;7399816;19;20516;-71
2023/11/11 00:47:06;;;;;;;1.88;0.60;;;7.20;1.00;;;;;;7402049;19;20006;-72
2023/11/11 00:49:36;;;;;;;1.73;0.68;;;7.20;1.00;;;;;;7400620;19;20020;-73
2023/11/11 00:52:07;;;;;;;1.33;0.70;;;7.20;1.00;;;;;;7401259;19;20022;-72
2023/11/11 00:54:40;;;;;;;1.23;0.60;;;7.20;1.00;;;;;;7399732;19;20558;-73
2023/11/11 00:57:10;;;;;;;0.90;0.70;;;7.20;1.00;;;;;;7401851;19;20028;-72
2023/11/11 00:59:41;;;;;;;1.58;0.70;;;7.20;1.00;;;;;;7402091;19;20014;-73
2023/11/11 01:02:11;;;;;;;1.88;0.68;;;7.20;1.00;;;;;;7400615;19;20022;-72
2023/11/11 01:04:41;;;;;;;1.98;0.85;;;7.20;10.60;;;;;;7398101;19;20031;-72
2023/11/11 01:07:11;;;;;;;2.42;0.73;;;7.10;16.30;;;;;;7400141;19;20122;-73
2023/11/11 01:09:43;;;;;;;1.65;0.65;;;7.10;19.90;;;;;;7402339;19;20014;-72
2023/11/11 01:12:14;;;;;;;1.13;0.55;;;7.10;22.30;;;;;;7399765;19;20022;-72
2023/11/11 01:14:44;;;;;;;2.00;0.60;;;7.10;23.90;;;;;;7397861;19;20043;-72
2023/11/11 01:17:14;;;;;;;1.58;0.80;;;7.10;23.40;;;;;;7401413;19;20026;-72
2023/11/11 01:19:45;;;;;;;3.03;0.82;;;7.10;21.50;;;;;;7400007;19;20086;-71
2023/11/11 01:22:16;;;;;;;1.63;0.80;;;7.10;18.20;;;;;;7399538;19;20101;-72
2023/11/11 01:24:49;;;;;;;1.60;0.55;;;7.20;17.30;;;;;;7397609;19;20006;-71
2023/11/11 01:27:19;;;;;;;0.47;0.40;;;7.30;1.30;;;;;;7400847;19;20011;-72
2023/11/11 01:29:49;;;;;;;1.00;0.60;;;7.50;1.00;;;;;;7399296;19;20039;-72
2023/11/11 01:32:19;;;;;;;1.02;0.45;;;7.50;1.00;;;;;;7400465;19;20006;-71
2023/11/11 01:34:49;;;;;;;0.70;0.50;;;7.60;1.00;;;;;;7398256;19;20019;-71
2023/11/11 01:37:19;;;;;;;1.13;0.25;;;7.70;1.00;;;;;;7397446;19;20022;-71
2023/11/11 01:39:52;;;;;;;3.20;0.40;;;7.60;1.00;;;;;;7398785;19;20080;-70
2023/11/11 01:42:22;;;;;;;1.63;0.40;;;7.60;1.00;;;;;;7399268;19;20018;-72
2023/11/11 01:44:52;;;;;;;0.73;0.60;;;7.70;1.00;;;;;;7398176;19;20349;-72
2023/11/11 01:47:22;;;;;;;0.50;0.40;;;7.60;1.00;;;;;;7419638;19;20010;-72
2023/11/11 01:49:53;;;;;;;0.80;0.50;;;7.70;1.00;;;;;;7404286;19;20035;-72
2023/11/11 01:52:23;;;;;;;1.90;0.73;;;7.70;1.00;;;;;;7398816;19;20044;-72
2023/11/11 01:54:56;;;;;;;0.50;0.43;;;7.70;1.00;;;;;;7398128;19;20098;-72
2023/11/11 01:57:26;;;;;;;0.88;0.40;;;7.70;1.00;;;;;;7399878;19;20031;-71
2023/11/11 01:59:58;;;;;;;0.45;0.35;;;7.70;1.00;;;;;;7399048;19;20022;-72
2023/11/11 02:02:28;;;;;;;1.00;0.52;;;7.70;1.00;;;;;;7399096;19;20010;-72
2023/11/11 02:04:58;;;;;;;0.75;0.30;;;7.60;1.00;;;;;;7397642;19;20014;-72
2023/11/11 02:07:28;;;;;;;1.05;0.40;;;7.60;1.00;;;;;;7399258;19;20010;-73
2023/11/11 02:10:02;;;;;;;2.55;0.35;;;7.50;1.00;;;;;;7399271;19;20547;-71
2023/11/11 02:12:34;;;;;;;0.57;0.28;;;7.50;1.00;;;;;;7399638;19;20039;-71
2023/11/11 02:15:04;;;;;;;1.80;0.68;;;7.50;1.00;;;;;;7395887;19;20355;-70
2023/11/11 02:17:34;;;;;;;0.95;0.30;;;7.40;1.00;;;;;;7399234;19;20017;-71
2023/11/11 02:20:05;;;;;;;0.45;0.40;;;7.30;1.00;;;;;;7399600;19;20010;-71
2023/11/11 02:22:35;;;;;;;0.50;0.43;;;7.20;1.00;;;;;;7399567;19;20063;-71
2023/11/11 02:25:09;;;;;;;1.05;0.60;;;7.20;1.00;;;;;;7395509;19;20371;-71
2023/11/11 02:27:40;;;;;;;;;;;7.20;1.00;;;;;;7398320;19;20034;-71
2023/11/11 02:30:12;;;;;;;1.23;0.60;;;7.10;1.00;;;;;;7399257;19;19914;-71
2023/11/11 02:32:42;;;;;;;0.73;0.40;;;7.00;1.00;;;;;;7397722;19;20010;-74
2023/11/11 02:35:12;;;;;;;0.73;0.50;;;6.90;1.00;;;;;;7394757;19;20006;-74
2023/11/11 02:37:42;;;;;;;0.63;0.50;;;6.80;1.00;;;;;;7397456;19;20010;-74
2023/11/11 02:40:15;;;;;;;1.65;0.40;;;6.80;1.00;;;;;;7398916;19;20014;-74
2023/11/11 02:42:46;;;;;;;0.60;0.40;;;6.80;1.00;;;;;;7395941;19;20035;-75
2023/11/11 02:45:16;;;;;;;1.75;0.43;;;6.70;1.00;;;;;;7395967;19;20039;-72
2023/11/11 02:47:46;;;;;;;1.55;0.30;;;6.70;1.00;;;;;;7397748;19;20011;-74
2023/11/11 02:50:17;;;;;;;2.40;0.30;;;6.60;1.00;;;;;;7398047;19;20010;-73
2023/11/11 02:52:46;;;;;;;0.60;0.40;;;6.60;4.20;;;;;;7398273;19;20007;-73
2023/11/11 02:55:20;;;;;;;2.25;0.60;;;6.50;16.50;;;;;;7394461;19;20024;-73
2023/11/11 02:57:47;;;;;;;0.63;0.30;;;6.40;26.80;;;;;;7396559;19;20031;-74
2023/11/11 03:00:18;;;;;;;0.60;0.30;;;6.30;38.30;;;;;;7397452;19;20349;-73
2023/11/11 03:02:48;;;;;;;3.10;0.60;;;6.30;56.50;;;;;;7396075;19;20367;-73
2023/11/11 03:05:19;;;;;;;1.63;0.55;;;6.30;69.80;;;;;;7395538;19;20014;-73
2023/11/11 03:07:49;;;;;;;1.33;0.80;;;6.30;71.70;;;;;;7398063;19;20460;-73
2023/11/11 03:10:22;;;;;;;0.85;0.60;;;6.30;88.80;;;;;;7397237;19;20039;-72
2023/11/11 03:12:52;;;;;;;1.70;0.80;;;6.40;92.20;;;;;;7396992;19;20014;-72
2023/11/11 03:15:22;;;;;;;3.30;1.08;;;6.40;94.60;;;;;;7395555;19;20455;-73
2023/11/11 03:17:52;;;;;;;1.73;1.00;;;6.50;98.10;;;;;;7395096;19;20017;-74
2023/11/11 03:20:22;;;;;;;1.70;1.40;;;6.50;91.60;;;;;;7396918;19;20074;-73
2023/11/11 03:22:52;;;;;;;1.52;1.30;;;6.60;87.30;;;;;;7396677;19;20014;-74
2023/11/11 03:25:25;;;;;;;1.88;1.10;;;6.60;70.10;;;;;;7394672;19;20639;-73
2023/11/11 03:27:55;;;;;;;3.70;1.10;;;6.80;37.70;;;;;;7396204;19;20014;-73
2023/11/11 03:30:25;;;;;;;5.35;1.80;;;6.70;39.50;;;;;;7396502;19;20082;-73
2023/11/11 03:32:55;;;;;;;1.25;1.15;;;6.80;30.20;;;;;;7394557;19;20534;-71
2023/11/11 03:35:25;;;;;;;2.05;1.42;;;6.80;28.80;;;;;;7394896;19;20018;-72
2023/11/11 03:37:57;;;;;;;2.67;1.17;;;6.80;29.20;;;;;;7393836;19;20017;-72
2023/11/11 03:40:30;;;;;;;1.85;1.13;;;6.80;29.30;;;;;;7396317;19;20018;-72
2023/11/11 03:43:00;;;;;;;3.15;1.30;;;6.80;30.10;;;;;;7394198;19;20078;-72
2023/11/11 03:45:30;;;;;;;3.05;1.15;;;6.80;15.00;;;;;;7398508;19;20035;-72
2023/11/11 03:48:00;;;;;;;2.22;1.10;;;6.90;13.40;;;;;;7403427;19;20507;-73
2023/11/11 03:50:30;;;;;;;3.47;1.40;;;6.90;18.10;;;;;;7404125;19;20025;-71
2023/11/11 03:53:00;;;;;;;3.55;1.70;;;6.80;20.50;;;;;;7402780;19;20011;-71
2023/11/11 03:55:32;;;;;;;2.30;1.38;;;6.90;18.20;;;;;;7401292;19;20043;-72
2023/11/11 03:58:02;;;;;;;2.47;1.40;;;6.90;12.60;;;;;;7401075;19;20093;-72
2023/11/11 04:00:32;;;;;;;2.42;1.58;;;6.90;11.80;;;;;;7402651;19;20022;-71
2023/11/11 04:03:03;;;;;;;2.55;1.55;;;7.00;2.40;;;;;;7400224;19;20035;-71
2023/11/11 04:05:33;;;;;;;1.58;1.10;;;7.00;1.90;;;;;;7396633;19;20018;-73
2023/11/11 04:08:03;;;;;;;2.47;1.60;;;7.00;1.00;;;;;;7402827;19;20010;-72
2023/11/11 04:10:37;;;;;;;1.90;1.63;;;6.90;1.60;;;;;;7401751;19;20035;-71
2023/11/11 04:13:09;;;;;;;3.17;1.77;;;7.00;1.00;;;;;;7402176;19;20078;-72
2023/11/11 04:15:39;;;;;;;2.38;1.45;;;6.90;2.00;;;;;;7400103;19;20035;-74
2023/11/11 04:18:10;;;;;;;3.38;1.67;;;7.00;1.00;;;;;;7399374;19;20014;-72
2023/11/11 04:20:40;;;;;;;3.67;1.60;;;7.00;1.00;;;;;;7402169;19;20491;-72
2023/11/11 04:23:10;;;;;;;2.63;1.60;;;7.00;1.90;;;;;;7401316;19;20066;-72
2023/11/11 04:25:43;;;;;;;2.55;1.60;;;6.90;3.90;;;;;;7398900;19;20471;-71
2023/11/11 04:28:14;;;;;;;2.85;2.05;;;6.90;4.70;;;;;;7402031;19;20015;-72
2023/11/11 04:30:44;;;;;;;2.10;1.67;;;7.00;6.80;;;;;;7398648;19;20412;-72
2023/11/11 04:33:13;;;;;;;2.55;1.95;;;7.00;1.30;;;;;;7401474;19;20374;-71
2023/11/11 04:35:44;;;;;;;3.63;1.90;;;6.90;4.50;;;;;;7399659;19;19998;-71
2023/11/11 04:38:14;;;;;;;2.15;1.77;;;6.90;4.30;;;;;;7400125;19;20015;-71
2023/11/11 04:40:47;;;;;;;3.72;1.90;;;6.90;6.00;;;;;;7402736;19;20027;-71
2023/11/11 04:43:17;;;;;;;2.33;1.88;;;6.90;10.80;;;;;;7400390;19;20043;-71
2023/11/11 04:45:48;;;;;;;2.30;2.10;;;6.90;11.10;;;;;;7397145;19;20476;-72
2023/11/11 04:48:18;;;;;;;3.72;1.92;;;6.90;12.60;;;;;;7399942;19;20043;-72
2023/11/11 04:50:48;;;;;;;3.13;1.90;;;6.90;10.00;;;;;;7400366;19;20018;-72
2023/11/11 04:53:18;;;;;;;2.92;2.20;;;6.90;11.90;;;;;;7401314;19;20022;-72
2023/11/11 04:55:52;;;;;;;2.63;2.33;;;6.90;11.10;;;;;;7392651;19;20610;-71
2023/11/11 04:58:23;;;;;;;2.95;2.40;;;6.90;10.30;;;;;;7399538;19;20024;-71
2023/11/11 05:00:54;;;;;;;2.92;2.10;;;6.90;10.30;;;;;;7399977;19;20022;-71
2023/11/11 05:03:25;;;;;;;4.30;2.50;;;6.90;13.40;;;;;;7399063;19;20475;-72
2023/11/11 05:05:55;;;;;;;3.58;2.78;;;6.90;14.40;;;;;;7400096;19;20503;-71
2023/11/11 05:08:25;;;;;;;3.58;2.45;;;6.90;18.60;;;;;;7400835;19;20029;-71
2023/11/11 05:10:58;;;;;;;3.75;2.53;;;6.80;21.80;;;;;;7399972;19;20470;-71
2023/11/11 05:13:27;;;;;;;4.03;2.45;;;6.70;21.00;;;;;;7399797;19;20021;-72
2023/11/11 05:16:10;;;;;;;4.18;2.30;;;6.70;22.40;;;;;;7400349;19;20010;-71
2023/11/11 05:18:40;;;;;;;7.00;2.95;;;6.60;34.10;;;;;;7398925;19;20078;-71
2023/11/11 05:21:10;;;;;;;4.88;2.95;;;6.60;41.60;;;;;;7400715;19;20356;-71
2023/11/11 05:23:40;;;;;;;2.63;2.40;;;6.60;34.60;;;;;;7398892;19;20014;-72
2023/11/11 05:26:13;;;;;;;3.22;2.50;;;6.60;34.50;;;;;;7400450;19;20018;-72
2023/11/11 05:28:43;;;;;;;4.38;3.28;;;6.70;30.00;;;;;;7400771;19;20031;-72
2023/11/11 05:31:13;;;;;;;6.63;3.05;;;6.60;22.60;;;;;;7400478;19;20396;-72
2023/11/11 05:33:44;;;;;;;3.88;2.97;;;6.70;17.20;;;;;;7399266;19;20069;-72
2023/11/11 05:36:14;;;;;;;7.90;2.95;;;6.60;17.30;;;;;;7399919;19;20384;-72
2023/11/11 05:38:44;;;;;;;6.93;3.17;;;6.60;19.10;;;;;;7398487;19;20003;-72
2023/11/11 05:41:17;;;;;;;4.63;2.55;;;6.60;11.60;;;;;;7399508;19;20014;-72
2023/11/11 05:43:47;;;;;;;3.97;2.55;;;6.60;13.00;;;;;;7398578;19;20090;-72
2023/11/11 05:46:17;;;;;;;3.30;2.75;;;6.60;12.70;;;;;;7399692;19;20031;-73
2023/11/11 05:48:47;;;;;;;7.88;2.90;;;6.60;6.20;;;;;;7399434;19;20133;-72
2023/11/11 05:51:17;;;;;;;3.90;2.30;;;6.50;5.10;;;;;;7399077;19;20482;-72
2023/11/11 05:53:47;;;;;;;3.25;2.88;;;6.50;5.30;;;;;;7397662;19;20018;-72
2023/11/11 05:56:20;;;;;;;3.40;2.45;;;6.50;3.10;;;;;;7397260;19;20041;-72
2023/11/11 05:58:51;;;;;;;3.60;2.50;;;6.40;9.30;;;;;;7396586;19;20002;-71
2023/11/11 06:01:21;;;;;;;3.30;2.70;;;6.40;9.80;;;;;;7398746;19;20018;-72
2023/11/11 06:03:51;;;;;;;5.60;3.20;;;6.30;12.20;;;;;;7398143;19;20085;-72
2023/11/11 06:06:21;;;;;;;4.40;2.80;;;6.30;8.90;;;;;;7397786;19;20007;-72
2023/11/11 06:08:51;;;;;;;3.60;3.05;;;6.30;8.50;;;;;;7396374;19;20014;-72
2023/11/11 06:11:24;;;;;;;4.68;2.95;;;6.20;10.40;;;;;;7397310;19;20023;-72
2023/11/11 06:13:57;;;;;;;5.63;2.67;;;6.20;11.70;;;;;;7396979;19;20018;-72
2023/11/11 06:16:27;;;;;;;4.68;3.45;;;6.20;8.30;;;;;;7398338;19;20352;-72
2023/11/11 06:18:57;;;;;;;5.70;3.47;;;6.20;7.70;;;;;;7397134;19;20003;-72
2023/11/11 06:21:27;;;;;;;3.92;3.25;;;6.20;4.30;;;;;;7398398;19;20010;-70
2023/11/11 06:23:57;;;;;;;4.80;2.97;;;6.20;4.30;;;;;;7395694;19;20118;-71
2023/11/11 06:26:30;;;;;;;5.25;3.15;;;6.20;8.50;;;;;;7396729;19;20090;-71
2023/11/11 06:29:00;;;;;;;5.28;3.10;;;6.20;5.00;;;;;;7398320;19;20077;-72
2023/11/11 06:31:32;;;;;;;6.15;3.30;;;6.20;6.80;;;;;;7398930;19;20400;-71
2023/11/11 06:34:03;;;;;;;7.35;3.40;;;6.20;7.50;;;;;;7397417;19;20035;-72
2023/11/11 06:36:34;;;;;;;5.35;3.25;;;6.20;4.70;;;;;;7396415;19;20018;-72
2023/11/11 06:39:04;;;;;;;7.95;3.25;;;6.30;2.50;;;;;;7396744;19;20026;-72
2023/11/11 06:41:37;;;;;;;7.07;3.13;;;6.40;5.60;;;;;;7397864;19;20035;-72
2023/11/11 06:44:07;;;;;;;4.70;3.63;;;6.40;8.70;;;;;;7396225;19;20542;-72
2023/11/11 06:46:37;;;;;;;5.10;3.25;;;6.30;13.60;;;;;;7397511;19;20855;-71
2023/11/11 06:49:07;;;;;;;7.30;3.40;;;6.40;13.30;;;;;;7397071;19;20014;-72
2023/11/11 06:51:35;;;;;;;5.32;3.80;;;6.40;16.80;;;;;;7397731;19;20455;-71
2023/11/11 06:54:09;;;;;;;7.20;3.65;;;6.30;23.10;;;;;;7396167;19;20018;-72
2023/11/11 06:56:41;;;;;;;4.32;3.17;;;6.40;14.80;;;;;;7395776;19;20007;-71
2023/11/11 06:59:11;;;;;;;6.05;3.35;;;6.40;15.40;;;;;;7394908;19;20022;-72
2023/11/11 07:01:41;;;;;;;8.10;3.25;;;6.40;19.30;;;;;;7398310;19;20054;-72
2023/11/11 07:04:11;;;;;;;6.55;2.97;;;6.40;10.20;;;;;;7395500;19;20018;-72
2023/11/11 07:06:41;;;;;;;5.43;2.92;;;6.40;9.00;;;;;;7397177;19;20017;-71
2023/11/11 07:09:12;;;;;;;3.67;2.90;;;6.40;6.60;;;;;;7396331;19;20010;-72
2023/11/11 07:11:45;;;;;;;2.85;2.35;;;6.40;2.10;;;;;;7397074;19;20035;-72
2023/11/11 07:14:15;;;;;;;2.90;2.25;;;6.50;1.00;;;;;;7395263;19;20600;-72
2023/11/11 07:16:46;;;;;;;7.63;2.85;;;6.50;1.00;;;;;;7397192;19;20078;-72
2023/11/11 07:19:16;;;;;;;4.75;3.00;;;6.50;1.00;;;;;;7392506;19;20018;-72
2023/11/11 07:21:46;;;;;;;3.90;3.00;;;6.50;1.00;;;;;;7395491;19;20030;-72
2023/11/11 07:24:36;;;;;;;5.45;3.22;;;6.50;1.00;;;;;;7393477;19;20011;-71
2023/11/11 07:27:09;;;;;;;5.00;2.97;;;6.50;1.00;;;;;;7395409;19;20023;-71
2023/11/11 07:29:39;;;;;;;5.40;3.33;;;6.50;1.00;;;;;;7396085;19;20010;-71
2023/11/11 07:32:11;;;;;;;5.60;2.90;;;6.60;1.00;;;;;;7395709;19;20003;-71
2023/11/11 07:34:43;;;;;;;6.68;3.10;;;6.60;1.00;;;;;;7394018;19;20014;-71
2023/11/11 07:37:15;;;;;;;3.23;2.83;;;6.70;1.00;;;;;;7395663;19;20013;-72
2023/11/11 07:39:45;;;;;;;5.45;3.42;;;6.70;1.00;;;;;;7393918;19;20589;-72
2023/11/11 07:42:17;;;;;;;3.95;2.97;;;6.70;1.00;;;;;;7396559;19;20118;-72
2023/11/11 07:44:47;;;;;;;4.25;3.25;;;6.80;1.00;;;;;;7391414;19;20015;-72
2023/11/11 07:47:18;;;;;;;5.47;3.20;;;6.80;1.00;;;;;;7395385;19;20031;-72
2023/11/11 07:49:48;;;;;;;5.40;3.10;;;6.80;1.00;;;;;;7394897;19;20035;-72
2023/11/11 07:52:18;;;;;;;5.22;2.95;;;6.80;1.00;;;;;;7395044;19;20018;-73
2023/11/11 07:54:48;;;;;;;6.38;2.58;;;6.80;1.00;;;;;;7393872;19;20056;-72
2023/11/11 07:57:20;;;;;;;5.43;3.00;;;6.80;1.00;;;;;;7394446;19;20014;-72
2023/11/11 08:00:16;;;;;;;4.05;3.03;;;6.80;1.00;;;;;;7394149;19;20014;-72
2023/11/11 08:02:47;;;;;;;6.43;2.70;;;6.80;1.00;;;;;;7394173;19;20017;-72
2023/11/11 08:05:19;;;;;;;5.38;3.05;;;6.80;1.00;;;;;;7391670;19;20011;-71
2023/11/11 08:07:49;;;;;;;6.43;3.20;;;6.80;1.00;;;;;;7393627;19;20503;-71
2023/11/11 08:10:19;;;;;;;4.63;2.70;;;6.80;1.00;;;;;;7379341;19;20613;-71
2023/11/11 08:12:52;;;;;;;4.55;3.63;;;6.80;1.00;;;;;;7383123;19;20007;-71
2023/11/11 08:15:23;;;;;;;4.47;3.10;;;6.80;1.00;;;;;;7379199;19;20018;-71
2023/11/11 08:17:54;;;;;;;5.63;3.10;;;6.90;1.00;;;;;;7380581;19;20359;-72
2023/11/11 08:20:24;;;;;;;5.57;3.30;;;6.90;1.00;;;;;;7379149;19;20493;-71
2023/11/11 08:22:54;;;;;;;4.28;3.00;;;6.90;1.00;;;;;;7379766;19;20609;-71
2023/11/11 08:25:24;;;;;;;6.60;2.90;;;7.00;1.00;;;;;;7377036;19;20728;-73
2023/11/11 08:27:57;;;;;;;6.20;3.08;;;7.10;1.00;;;;;;7379955;19;20049;-72
2023/11/11 08:30:27;;;;;;;8.82;3.10;;;7.30;1.00;;;;;;7382432;19;20022;-71
2023/11/11 08:32:57;;;;;;;4.18;2.78;;;7.30;1.00;;;;;;7393730;19;20022;-70
2023/11/11 08:35:27;;;;;;;4.63;2.50;;;7.40;1.00;;;;;;7392210;19;20014;-70
2023/11/11 08:38:00;;;;;;;5.15;3.03;;;7.30;1.00;;;;;;7397272;19;20015;-70
2023/11/11 08:40:30;;;;;;;3.90;2.83;;;7.20;1.00;;;;;;7397283;19;20018;-71
2023/11/11 08:43:04;;;;;;;3.78;2.55;;;7.20;1.00;;;;;;7400072;19;20482;-71
2023/11/11 08:45:34;;;;;;;3.92;2.90;;;7.10;1.00;;;;;;7397174;19;20022;-71
2023/11/11 08:48:04;;;;;;;3.80;2.80;;;7.20;1.00;;;;;;7398434;19;20006;-71
2023/11/11 08:50:34;;;;;;;4.65;3.20;;;7.40;1.00;;;;;;7398886;19;20015;-71
2023/11/11 08:53:04;;;;;;;5.47;3.03;;;7.30;1.00;;;;;;7398672;19;20023;-72
2023/11/11 08:55:34;;;;;;;4.60;2.72;;;7.40;1.00;;;;;;7391986;19;20342;-71
2023/11/11 08:58:07;;;;;;;3.70;2.67;;;7.50;1.00;;;;;;7382695;19;20105;-71
2023/11/11 09:00:40;;;;;;;3.38;2.58;;;7.40;1.00;;;;;;7383003;19;20018;-71
2023/11/11 09:03:10;;;;;;;6.63;2.50;;;7.50;1.00;;;;;;7384520;19;20044;-71
2023/11/11 09:05:40;;;;;;;6.75;3.10;;;7.40;1.00;;;;;;7384002;19;20015;-72
2023/11/11 09:08:10;;;;;;;3.55;2.92;;;7.50;1.00;;;;;;7383526;19;20468;-71
2023/11/11 09:10:41;;;;;;;6.07;2.65;;;7.60;1.00;;;;;;7385997;19;20018;-71
2023/11/11 09:13:15;;;;;;;3.97;2.80;;;7.60;1.00;;;;;;7384795;19;20112;-74
2023/11/11 09:15:45;;;;;;;;;;;7.70;1.00;;;;;;7383010;19;20082;-71
2023/11/11 09:18:15;;;;;;;4.57;2.60;;;7.70;1.00;;;;;;7384461;19;19923;-71
2023/11/11 09:20:45;;;;;;;4.75;2.42;;;7.60;1.00;;;;;;7384266;19;20023;-71
2023/11/11 09:23:15;;;;;;;5.45;3.05;;;7.60;1.00;;;;;;7386116;19;20081;-70
2023/11/11 09:25:45;;;;;;;5.25;2.83;;;7.80;1.00;;;;;;7382472;19;20035;-70
2023/11/11 09:28:19;;;;;;;6.60;2.72;;;7.60;1.00;;;;;;7384729;19;20522;-71
2023/11/11 09:30:49;;;;;;;2.80;2.35;;;7.50;1.00;;;;;;7385394;19;20688;-70
2023/11/11 09:33:19;;;;;;;2.97;2.50;;;7.60;1.00;;;;;;7385619;19;20373;-71
2023/11/11 09:35:50;;;;;;;4.93;2.65;;;7.50;1.00;;;;;;7382141;19;20369;-71
2023/11/11 09:38:20;;;;;;;3.67;2.40;;;7.40;1.00;;;;;;7385038;19;20010;-70
2023/11/11 09:40:50;;;;;;;3.17;2.17;;;7.40;1.00;;;;;;7384436;19;20027;-71
2023/11/11 09:43:22;;;;;;;5.22;2.83;;;7.60;1.00;;;;;;7383431;19;20474;-70
2023/11/11 09:45:54;;;;;;;4.45;2.75;;;7.70;1.00;;;;;;7382264;19;20035;-70
2023/11/11 09:48:27;;;;;;;2.67;2.30;;;7.70;1.00;;;;;;7384627;19;20014;-70
2023/11/11 09:50:58;;;;;;;4.68;3.13;;;7.50;1.00;;;;;;7385902;19;20097;-72
2023/11/11 09:53:28;;;;;;;5.00;2.60;;;7.80;1.00;;;;;;7382712;19;20014;-70
2023/11/11 09:55:59;;;;;;;6.72;3.05;;;7.80;1.00;;;;;;7381877;19;20098;-71
2023/11/11 09:58:34;;;;;;;5.10;2.55;;;7.80;1.00;;;;;;7383059;19;20021;-71
2023/11/11 10:01:04;;;;;;;5.43;2.40;;;7.90;1.00;;;;;;7382394;19;20049;-71
2023/11/11 10:03:34;;;;;;;3.53;2.38;;;7.80;1.00;;;;;;7381314;19;20091;-70
2023/11/11 10:06:05;;;;;;;2.95;2.15;;;7.80;1.00;;;;;;7380533;19;20030;-71
2023/11/11 10:08:35;;;;;;;2.92;1.80;;;8.10;1.00;;;;;;7383566;19;20014;-71
2023/11/11 10:11:09;;;;;;;3.50;1.95;;;8.40;1.00;;;;;;7379400;19;20621;-72
2023/11/11 10:13:41;;;;;;;1.90;1.65;;;8.60;1.00;;;;;;7381757;19;20010;-71
2023/11/11 10:16:21;;;;;;;2.85;1.92;;;8.50;1.00;;;;;;7380273;19;20743;-71
2023/11/11 10:18:52;;;;;;;2.72;2.08;;;8.30;1.00;;;;;;7384993;19;20519;-71
2023/11/11 10:21:23;;;;;;;3.97;1.73;;;8.20;1.00;;;;;;7382926;19;20036;-70
2023/11/11 10:23:55;;;;;;;2.10;1.67;;;8.20;1.00;;;;;;7377813;19;20017;-70
2023/11/11 10:26:26;;;;;;;3.85;1.85;;;8.30;1.00;;;;;;7380499;19;20023;-71
2023/11/11 10:28:59;;;;;;;3.78;1.70;;;8.40;1.00;;;;;;7382892;19;20314;-70
2023/11/11 10:31:37;;;;;;;3.85;1.90;;;8.20;1.00;;;;;;7381321;19;20022;-71
2023/11/11 10:34:08;;;;;;;2.63;1.88;;;8.10;1.00;;;;;;7385969;19;20006;-70
2023/11/11 10:36:43;;;;;;;4.25;1.88;;;8.00;1.00;;;;;;7392115;19;20400;-72
2023/11/11 10:39:15;;;;;;;6.07;1.60;;;8.00;1.00;;;;;;7390955;19;20018;-71
2023/11/11 10:41:46;;;;;;;4.68;1.95;;;8.10;1.00;;;;;;7394084;19;20006;-72
2023/11/11 10:44:19;;;;;;;4.05;2.03;;;8.10;1.00;;;;;;7393295;19;20278;-70
2023/11/11 10:46:50;;;;;;;4.43;1.75;;;8.20;1.00;;;;;;7394994;19;20014;-71
2023/11/11 10:49:20;;;;;;;2.70;1.58;;;8.30;1.00;;;;;;7394456;19;20011;-71
2023/11/11 10:51:52;;;;;;;3.00;1.75;;;8.50;1.00;;;;;;7394741;19;20013;-72
2023/11/11 10:54:25;;;;;;;4.13;1.70;;;8.60;1.00;;;;;;7392033;19;20030;-72
2023/11/11 10:56:56;;;;;;;4.43;1.85;;;8.60;1.00;;;;;;7381134;19;21159;-71
2023/11/11 10:59:29;;;;;;;2.30;1.63;;;8.40;1.00;;;;;;7377498;19;20006;-73
2023/11/11 11:01:59;;;;;;;2.50;1.60;;;8.30;1.00;;;;;;7380793;19;20010;-71
2023/11/11 11:04:32;;;;;;;3.60;1.90;;;8.20;1.00;;;;;;7379347;19;20043;-71
2023/11/11 11:07:09;;;;;;;3.97;2.00;;;8.10;1.00;;;;;;7377296;19;20435;-72
2023/11/11 11:09:50;;;;;;;2.38;1.73;;;8.00;1.00;;;;;;7382366;19;20010;-72
2023/11/11 11:12:26;;;;;;;3.88;1.80;;;8.10;1.00;;;;;;7381127;19;20010;-71
2023/11/11 11:15:00;;;;;;;3.50;1.98;;;8.10;1.00;;;;;;7378192;19;20491;-70
2023/11/11 11:17:38;;;;;;;3.65;1.67;;;8.00;1.00;;;;;;7379360;19;20010;-70
2023/11/11 11:20:14;;;;;;;3.13;2.03;;;8.30;1.00;;;;;;7379468;19;20078;-71
2023/11/11 11:22:46;;;;;;;5.10;2.28;;;8.30;1.00;;;;;;7379436;19;20073;-71
2023/11/11 11:25:36;;;;;;;1.60;1.40;;;8.50;1.00;;;;;;7379432;19;20061;-73
2023/11/11 11:28:21;;;;;;;3.22;1.50;;;8.60;1.00;;;;;;7378162;19;20018;-71
2023/11/11 11:30:58;;;;;;;3.58;1.50;;;8.40;1.00;;;;;;7381693;19;20035;-72
2023/11/11 11:33:30;;;;;;;3.75;1.58;;;8.60;1.00;;;;;;7379553;19;20014;-70
2023/11/11 11:36:05;;;;;;;3.42;1.70;;;8.60;1.00;;;;;;7377646;19;20007;-72
2023/11/11 11:38:37;;;;;;;2.47;1.30;;;8.60;1.00;;;;;;7378466;19;20050;-70
2023/11/11 11:41:11;;;;;;;2.85;1.65;;;8.50;1.00;;;;;;7380965;19;20023;-71
2023/11/11 11:43:43;;;;;;;3.03;1.58;;;8.50;1.00;;;;;;7379586;19;20014;-71
2023/11/11 11:46:16;;;;;;;1.55;1.33;;;8.20;1.00;;;;;;7383444;19;20054;-71
2023/11/11 11:48:46;;;;;;;2.42;1.70;;;8.30;1.00;;;;;;7376399;19;20025;-73
2023/11/11 11:51:18;;;;;;;3.72;1.90;;;8.30;1.00;;;;;;7381288;19;20010;-70
2023/11/11 11:53:53;;;;;;;2.45;1.80;;;8.30;1.00;;;;;;7392907;19;20018;-71
2023/11/11 11:56:30;;;;;;;2.50;1.50;;;8.30;1.00;;;;;;7393152;19;20117;-72
2023/11/11 11:59:02;;;;;;;4.22;1.60;;;8.30;1.00;;;;;;7382543;19;20010;-70
2023/11/11 12:01:37;;;;;;;2.95;1.55;;;8.20;1.00;;;;;;7380021;19;20019;-71
2023/11/11 12:04:08;;;;;;;3.47;1.63;;;8.30;1.00;;;;;;7377067;19;20011;-71
2023/11/11 12:06:39;;;;;;;2.90;1.90;;;8.30;1.00;;;;;;7385582;19;20039;-71
2023/11/11 12:09:12;;;;;;;4.47;2.03;;;8.20;1.00;;;;;;7384667;19;20333;-73
2023/11/11 12:11:42;;;;;;;2.40;1.70;;;8.30;1.00;;;;;;7387400;19;20038;-71
2023/11/11 12:14:13;;;;;;;1.80;1.45;;;8.30;1.00;;;;;;7384551;19;20031;-71
2023/11/11 12:16:49;;;;;;;3.45;2.00;;;8.20;1.00;;;;;;7390445;19;20017;-73
2023/11/11 12:19:21;;;;;;;2.85;1.70;;;8.00;1.00;;;;;;7385785;19;20010;-71
2023/11/11 12:21:53;;;;;;;1.50;1.40;;;7.90;1.00;;;;;;7385555;19;20015;-71
2023/11/11 12:24:25;;;;;;;2.22;1.80;;;7.90;1.00;;;;;;7383308;19;20014;-71
2023/11/11 12:26:56;;;;;;;4.10;2.03;;;7.90;1.00;;;;;;7387041;19;20018;-71
2023/11/11 12:29:31;;;;;;;4.60;2.10;;;7.80;1.00;;;;;;7386564;19;20011;-70
2023/11/11 12:32:04;;;;;;;4.00;1.90;;;7.90;1.00;;;;;;7385757;19;20699;-71
2023/11/11 12:34:34;;;;;;;3.83;2.45;;;7.90;1.00;;;;;;7383406;19;20073;-70
2023/11/11 12:37:05;;;;;;;4.20;2.28;;;7.90;1.00;;;;;;7383605;19;20010;-74
2023/11/11 12:39:37;;;;;;;4.13;2.22;;;8.20;1.00;;;;;;7386862;19;20350;-72
2023/11/11 12:42:07;;;;;;;2.80;1.80;;;8.30;1.00;;;;;;7385511;19;20031;-70
2023/11/11 12:44:39;;;;;;;2.83;2.10;;;8.30;1.00;;;;;;7382858;19;20480;-72
2023/11/11 12:47:14;;;;;;;3.45;2.20;;;8.30;1.00;;;;;;7382888;19;21224;-72
2023/11/11 12:49:51;;;;;;;2.88;1.92;;;8.10;1.00;;;;;;7382852;19;20014;-71
2023/11/11 12:52:21;;;;;;;3.03;1.60;;;8.20;1.00;;;;;;7386031;19;20054;-71
2023/11/11 12:54:51;;;;;;;4.32;2.17;;;8.40;1.00;;;;;;7381926;19;20029;-71
2023/11/11 12:57:28;;;;;;;5.28;1.92;;;8.40;1.00;;;;;;7380506;19;20014;-71
2023/11/11 13:00:00;;;;;;;3.35;2.15;;;8.60;1.00;;;;;;7385153;19;20014;-72
2023/11/11 13:02:41;;;;;;;4.63;1.73;;;8.50;1.00;;;;;;7384718;19;20025;-71
2023/11/11 13:05:13;;;;;;;3.70;1.77;;;8.70;1.00;;;;;;7380540;19;20089;-71
2023/11/11 13:07:43;;;;;;;2.50;1.80;;;8.50;1.00;;;;;;7380776;19;20507;-71
2023/11/11 13:10:14;;;;;;;3.72;1.95;;;8.40;1.00;;;;;;7389495;19;20408;-71
2023/11/11 13:12:44;;;;;;;3.13;1.85;;;8.40;1.00;;;;;;7397552;19;20026;-70
2023/11/11 13:15:14;;;;;;;2.95;1.65;;;8.30;1.00;;;;;;7396212;19;20035;-69
2023/11/11 13:17:47;;;;;;;5.43;1.80;;;8.40;1.00;;;;;;7397374;19;20035;-72
2023/11/11 13:20:19;;;;;;;2.97;1.90;;;8.50;1.00;;;;;;7398385;19;20721;-71
2023/11/11 13:22:50;;;;;;;4.38;2.15;;;8.60;1.00;;;;;;7397641;19;20027;-72
2023/11/11 13:25:20;;;;;;;3.30;1.92;;;8.70;1.00;;;;;;7397190;19;20018;-72
2023/11/11 13:27:51;;;;;;;4.30;2.00;;;8.70;1.00;;;;;;7401028;19;20005;-71